Terminal Aerodrome Forecast
Issued by NWS

Home | Current Version | Previous Version | Text Only | Print | Product List | Glossary On
Versions: 1 2 3 4 5 6 7 8 9 10 11 12 13 14 15 16 17 18 19 20 21
000
FTUS41 KOKX 281800 AAA
TAFSWF
TAF AMD
KSWF 281848Z 2819/2924 28012G20KT P6SM SCT035 BKN050
      TEMPO 2819/2821 6SM -TSRA SCT035CB
     FM282100 28014G20KT P6SM BKN050
     FM290200 29012KT P6SM SCT100
     FM290800 30008KT P6SM SCT100
     FM291700 28008KT P6SM BKN070
      AMD NOT SKED=

USA.gov is the U.S. government's official web portal to all federal, state and local government web resources and services.